Time;durP1;ratioP1;P1;durP2;ratioP2;P2;SDS_P1;SDS_P2;PMS_P1;PMS_P2;Temp;Humidity;BMP_temperature;BMP_pressure;BME280_temperature;BME280_humidity;BME280_pressure;Samples;Min_cycle;Max_cycle;Signal;HPM_P1;HPM_P2
2023/04/09 00:01:59;;;;;;;12.50;10.20;;;;;;;8.69;82.50;101248.31;103594;279;175344;-74
2023/04/09 00:04:34;;;;;;;11.40;10.20;;;;;;;8.75;82.34;101248.91;103700;280;38632;-75
2023/04/09 00:07:08;;;;;;;10.70;9.50;;;;;;;8.74;82.38;101249.27;103663;280;39584;-73
2023/04/09 00:09:42;;;;;;;10.30;8.90;;;;;;;8.70;82.08;101244.11;103676;280;39965;-75
2023/04/09 00:12:16;;;;;;;9.60;8.60;;;;;;;8.67;82.58;101242.42;103737;280;39687;-72
2023/04/09 00:14:50;;;;;;;9.60;8.60;;;;;;;8.68;82.74;101241.02;103716;280;38537;-72
2023/04/09 00:17:24;;;;;;;10.90;9.80;;;;;;;8.69;82.76;101239.79;103677;280;39686;-69
2023/04/09 00:19:58;;;;;;;12.20;10.50;;;;;;;8.70;82.89;101239.08;103653;280;38664;-70
2023/04/09 00:22:32;;;;;;;9.90;8.90;;;;;;;8.70;82.97;101238.54;103680;279;39667;-72
2023/04/09 00:25:07;;;;;;;10.90;9.70;;;;;;;8.68;82.72;101230.56;103642;280;40801;-69
2023/04/09 00:27:42;;;;;;;10.90;9.50;;;;;;;8.69;82.85;101232.48;103699;280;38234;-72
2023/04/09 00:30:17;;;;;;;10.80;9.70;;;;;;;8.68;82.84;101232.15;103670;280;39662;-71
2023/04/09 00:32:55;;;;;;;12.00;10.20;;;;;;;8.65;83.18;101228.73;103663;280;38459;-69
2023/04/09 00:35:28;;;;;;;11.10;9.90;;;;;;;8.66;83.41;101231.83;103676;280;38458;-70
2023/04/09 00:38:02;;;;;;;10.90;9.70;;;;;;;8.66;83.19;101230.80;103657;280;39573;-70
2023/04/09 00:40:36;;;;;;;11.30;9.60;;;;;;;8.65;83.03;101231.50;103663;280;39491;-71
2023/04/09 00:43:10;;;;;;;11.40;10.20;;;;;;;8.63;82.96;101228.93;103585;280;175357;-71
2023/04/09 00:45:44;;;;;;;12.10;10.80;;;;;;;8.61;83.13;101227.23;103652;280;38842;-71
2023/04/09 00:48:18;;;;;;;12.80;10.40;;;;;;;8.59;82.94;101227.77;103533;280;38274;-70
2023/04/09 00:50:53;;;;;;;13.00;11.10;;;;;;;8.58;83.16;101229.89;103685;280;38516;-74
2023/04/09 00:53:27;;;;;;;11.10;9.80;;;;;;;8.58;83.22;101225.02;103643;280;39712;-74
2023/04/09 00:56:01;;;;;;;10.30;9.20;;;;;;;8.54;82.90;101225.75;103654;279;39630;-72
2023/04/09 00:58:35;;;;;;;11.30;9.40;;;;;;;8.51;83.39;101230.85;103635;280;40175;-72
2023/04/09 01:01:09;;;;;;;10.70;9.30;;;;;;;8.51;83.67;101233.98;103654;280;38556;-69
2023/04/09 01:03:43;;;;;;;10.80;9.70;;;;;;;8.53;83.86;101239.35;103635;280;38374;-71
2023/04/09 01:06:23;;;;;;;11.50;10.30;;;;;;;8.55;83.93;101238.27;103635;280;38554;-72
2023/04/09 01:09:02;;;;;;;11.30;9.60;;;;;;;8.53;83.48;101235.52;103548;280;175409;-72
2023/04/09 01:11:42;;;;;;;10.10;9.10;;;;;;;8.44;83.24;101243.66;103679;280;38990;-72
2023/04/09 01:14:23;;;;;;;9.60;8.60;;;;;;;8.40;83.71;101239.02;103674;280;39647;-72
2023/04/09 01:17:01;;;;;;;9.50;8.60;;;;;;;8.42;83.48;101237.79;103719;280;39678;-71
2023/04/09 01:19:44;;;;;;;11.20;9.70;;;;;;;8.45;83.73;101239.13;103703;280;39171;-71
2023/04/09 01:22:37;;;;;;;10.70;9.60;;;;;;;8.46;83.77;101235.96;103703;279;38279;-70
2023/04/09 01:25:17;;;;;;;9.90;8.90;;;;;;;8.47;83.75;101234.40;103624;280;40127;-71
2023/04/09 01:28:06;;;;;;;9.70;8.70;;;;;;;8.45;83.56;101235.46;103675;280;38601;-69
2023/04/09 01:30:39;;;;;;;11.30;10.20;;;;;;;8.40;83.45;101235.20;103653;280;38983;-72
2023/04/09 01:33:14;;;;;;;14.70;10.40;;;;;;;8.38;83.55;101242.70;103020;280;909006;-72
2023/04/09 01:35:49;;;;;;;13.50;10.80;;;;;;;8.37;83.60;101241.33;103052;280;678674;-73
2023/04/09 01:38:24;;;;;;;11.40;10.20;;;;;;;8.34;83.74;101244.12;103642;280;38511;-72
2023/04/09 01:40:58;;;;;;;12.40;10.00;;;;;;;8.35;83.88;101251.60;103669;280;38255;-72
2023/04/09 01:43:32;;;;;;;10.20;9.20;;;;;;;8.35;83.77;101250.20;103647;280;38695;-72
2023/04/09 01:46:06;;;;;;;10.30;9.20;;;;;;;8.32;83.38;101248.34;103658;280;39408;-72
2023/04/09 01:48:40;;;;;;;11.30;10.10;;;;;;;8.33;83.88;101243.62;103674;279;39059;-75
2023/04/09 01:51:14;;;;;;;12.70;11.10;;;;;;;8.37;84.03;101247.23;103687;280;38366;-73
2023/04/09 01:53:48;;;;;;;12.30;10.60;;;;;;;8.37;83.97;101244.97;103641;280;38720;-73
2023/04/09 01:56:22;;;;;;;11.80;10.60;;;;;;;8.36;83.87;101245.16;103656;280;39454;-72
2023/04/09 01:58:57;;;;;;;14.20;12.00;;;;;;;8.31;83.68;101239.46;103673;280;39460;-72
2023/04/09 02:01:34;;;;;;;13.30;11.70;;;;;;;8.30;84.02;101240.88;103709;280;38851;-70
2023/04/09 02:04:11;;;;;;;16.10;12.10;;;;;;;8.25;84.03;101245.46;103671;280;39612;-70
2023/04/09 02:06:47;;;;;;;12.00;10.80;;;;;;;8.22;84.38;101243.24;103739;280;38737;-72
2023/04/09 02:09:22;;;;;;;12.60;11.00;;;;;;;8.22;84.43;101249.52;103632;268;38273;-70
2023/04/09 02:11:59;;;;;;;12.80;11.40;;;;;;;8.23;84.33;101252.45;103674;280;40035;-72
2023/04/09 02:14:34;;;;;;;13.00;11.50;;;;;;;8.24;84.38;101251.92;103507;280;175114;-72
2023/04/09 02:17:08;;;;;;;14.80;11.80;;;;;;;8.26;84.39;101254.32;103682;280;38419;-70
2023/04/09 02:19:44;;;;;;;15.30;13.50;;;;;;;8.22;84.17;101250.73;103659;280;38275;-71
2023/04/09 02:22:18;;;;;;;15.10;13.10;;;;;;;8.20;84.50;101258.58;103678;279;39667;-70
2023/04/09 02:24:52;;;;;;;13.40;12.00;;;;;;;8.20;84.79;101257.71;103629;280;39651;-69
2023/04/09 02:27:26;;;;;;;14.10;11.40;;;;;;;8.20;84.83;101254.92;103665;280;39001;-72
2023/04/09 02:30:00;;;;;;;12.90;11.60;;;;;;;8.19;84.80;101255.82;103653;280;38859;-71
2023/04/09 02:32:34;;;;;;;15.90;12.30;;;;;;;8.18;85.10;101259.81;103639;280;39044;-72
2023/04/09 02:35:14;;;;;;;13.50;11.70;;;;;;;8.21;85.31;101257.34;103622;280;39652;-72
2023/04/09 02:37:48;;;;;;;13.40;10.90;;;;;;;8.21;85.33;101261.35;103673;280;38694;-72
2023/04/09 02:40:22;;;;;;;12.30;10.80;;;;;;;8.19;85.15;101259.81;103644;280;39428;-73
2023/04/09 02:42:56;;;;;;;10.60;9.20;;;;;;;8.20;85.13;101261.53;103692;280;38630;-74
2023/04/09 02:45:30;;;;;;;11.40;9.20;;;;;;;8.21;85.36;101256.65;103726;280;40023;-72
2023/04/09 02:48:03;;;;;;;11.30;10.10;;;;;;;8.19;85.32;101260.34;103660;280;38574;-72
2023/04/09 02:50:37;;;;;;;10.70;9.60;;;;;;;8.18;85.35;101259.83;103657;280;38940;-71
2023/04/09 02:53:12;;;;;;;10.60;9.30;;;;;;;8.16;85.45;101260.20;103658;280;39667;-70
2023/04/09 02:55:46;;;;;;;10.30;8.40;;;;;;;8.18;85.65;101258.95;103712;280;38354;-74
2023/04/09 02:58:20;;;;;;;9.10;8.20;;;;;;;8.18;85.53;101255.13;103642;280;38795;-72
2023/04/09 03:00:54;;;;;;;9.40;8.40;;;;;;;8.18;85.36;101254.61;103674;280;38205;-69
2023/04/09 03:03:28;;;;;;;9.30;8.30;;;;;;;8.19;85.62;101250.59;103656;280;38525;-71
2023/04/09 03:06:02;;;;;;;9.90;8.90;;;;;;;8.18;85.33;101247.82;103674;280;39917;-75
2023/04/09 03:08:36;;;;;;;10.60;8.80;;;;;;;8.18;85.45;101249.39;103747;279;38395;-74
2023/04/09 03:11:10;;;;;;;8.40;7.60;;;;;;;8.17;85.26;101250.11;103673;280;38349;-72
2023/04/09 03:13:45;;;;;;;11.40;8.20;;;;;;;8.18;85.36;101250.96;103632;280;38509;-71
2023/04/09 03:16:19;;;;;;;9.80;8.80;;;;;;;8.14;85.06;101249.62;103685;280;38506;-72
2023/04/09 03:18:53;;;;;;;9.50;8.50;;;;;;;8.12;85.34;101247.92;103638;280;39818;-74
2023/04/09 03:21:28;;;;;;;10.30;9.30;;;;;;;8.08;85.07;101250.41;103699;280;39662;-71
2023/04/09 03:24:02;;;;;;;9.40;8.40;;;;;;;8.06;85.57;101248.86;103577;280;175404;-72
2023/04/09 03:26:37;;;;;;;9.10;8.20;;;;;;;8.09;85.56;101248.83;103716;280;38874;-71
2023/04/09 03:29:11;;;;;;;8.70;7.80;;;;;;;8.08;85.06;101249.36;103502;280;38324;-72
2023/04/09 03:31:45;;;;;;;9.80;8.60;;;;;;;8.03;85.25;101249.60;103634;280;40129;-71
2023/04/09 03:34:19;;;;;;;11.20;9.30;;;;;;;8.00;85.49;101246.52;103650;280;39184;-70
2023/04/09 03:36:53;;;;;;;8.80;8.00;;;;;;;7.98;85.55;101244.27;103553;280;175414;-73
2023/04/09 03:39:29;;;;;;;10.20;8.60;;;;;;;7.98;85.36;101248.11;103655;280;39661;-73
2023/04/09 03:42:03;;;;;;;10.70;8.10;;;;;;;7.99;85.63;101249.66;103655;280;39567;-72
2023/04/09 03:44:37;;;;;;;10.00;8.60;;;;;;;8.00;85.55;101243.39;103660;280;40182;-72
2023/04/09 03:47:12;;;;;;;11.20;9.90;;;;;;;8.02;85.81;101247.34;103654;280;39451;-72
2023/04/09 03:49:46;;;;;;;12.40;9.90;;;;;;;7.99;85.39;101242.52;103569;280;175441;-72
2023/04/09 03:52:20;;;;;;;11.30;9.60;;;;;;;7.90;85.06;101241.27;103667;280;38502;-75
2023/04/09 03:54:53;;;;;;;12.30;9.90;;;;;;;7.81;85.13;101243.11;103663;280;38403;-73
2023/04/09 03:57:27;;;;;;;11.40;9.30;;;;;;;7.73;85.13;101242.69;103666;280;39390;-72
2023/04/09 04:00:02;;;;;;;11.20;10.00;;;;;;;7.67;85.28;101243.29;103692;280;38548;-72
2023/04/09 04:02:36;;;;;;;11.50;10.30;;;;;;;7.66;85.72;101243.47;103705;280;39252;-72
2023/04/09 04:05:12;;;;;;;11.40;10.30;;;;;;;7.66;86.00;101245.02;103656;280;39440;-72
2023/04/09 04:07:46;;;;;;;10.60;9.60;;;;;;;7.63;85.95;101245.06;103661;280;38267;-72
2023/04/09 04:10:20;;;;;;;10.40;9.20;;;;;;;7.61;85.65;101240.76;103674;280;38612;-72
2023/04/09 04:12:54;;;;;;;10.70;9.60;;;;;;;7.60;85.71;101242.86;103595;280;172760;-72
2023/04/09 04:15:28;;;;;;;11.50;10.30;;;;;;;7.60;85.65;101242.34;103687;280;39530;-72
2023/04/09 04:18:03;;;;;;;12.10;10.20;;;;;;;7.59;85.53;101239.22;103666;280;38577;-71
2023/04/09 04:20:39;;;;;;;11.30;8.80;;;;;;;7.54;85.30;101241.36;103689;280;39956;-71
2023/04/09 04:23:13;;;;;;;10.80;9.20;;;;;;;7.48;85.15;101240.73;103691;280;38470;-69
2023/04/09 04:25:47;;;;;;;9.50;8.40;;;;;;;7.44;85.41;101235.55;103676;280;39425;-73
2023/04/09 04:28:21;;;;;;;9.30;8.30;;;;;;;7.43;85.43;101234.55;103701;280;38866;-75
2023/04/09 04:30:56;;;;;;;9.70;8.60;;;;;;;7.43;85.60;101233.84;103660;280;38251;-73
2023/04/09 04:33:30;;;;;;;11.30;9.20;;;;;;;7.45;85.58;101236.95;103621;280;38304;-73
2023/04/09 04:36:10;;;;;;;11.50;9.60;;;;;;;7.43;85.31;101232.80;103622;279;175434;-70
2023/04/09 04:38:44;;;;;;;9.90;8.80;;;;;;;7.37;85.05;101234.08;103643;280;39638;-70
2023/04/09 04:41:18;;;;;;;10.10;9.10;;;;;;;7.35;85.18;101236.17;103658;272;40193;-72
2023/04/09 04:43:52;;;;;;;8.90;7.90;;;;;;;7.29;84.85;101239.21;103642;280;38910;-72
2023/04/09 04:46:26;;;;;;;10.50;9.40;;;;;;;7.23;84.92;101238.73;103650;280;39691;-75
2023/04/09 04:49:00;;;;;;;11.30;10.20;;;;;;;7.21;85.34;101242.06;103645;280;38620;-75
2023/04/09 04:51:35;;;;;;;12.80;10.10;;;;;;;7.22;85.91;101240.83;103702;280;38378;-74
2023/04/09 04:54:09;;;;;;;11.80;10.30;;;;;;;7.25;86.28;101247.92;103662;280;38380;-73
2023/04/09 04:56:43;;;;;;;9.80;8.80;;;;;;;7.28;86.55;101257.27;103687;280;40115;-69
2023/04/09 04:59:17;;;;;;;9.70;8.70;;;;;;;7.33;86.65;101256.51;103678;280;38805;-72
2023/04/09 05:01:51;;;;;;;13.40;10.00;;;;;;;7.38;86.81;101262.02;103656;280;38519;-72
2023/04/09 05:04:25;;;;;;;11.40;9.80;;;;;;;7.44;87.01;101265.26;103664;269;38492;-73
2023/04/09 05:06:59;;;;;;;14.00;11.30;;;;;;;7.50;87.09;101262.23;103685;280;38900;-75
2023/04/09 05:09:33;;;;;;;12.40;10.80;;;;;;;7.54;87.25;101264.63;103656;280;38965;-74
2023/04/09 05:12:07;;;;;;;11.20;9.80;;;;;;;7.59;87.44;101264.75;103665;280;38875;-74
2023/04/09 05:14:41;;;;;;;11.90;10.10;;;;;;;7.65;87.57;101267.63;103035;280;909284;-74
2023/04/09 05:17:15;;;;;;;10.80;9.10;;;;;;;7.72;87.80;101268.23;103662;280;38225;-70
2023/04/09 05:19:53;;;;;;;11.00;9.50;;;;;;;7.79;87.81;101270.08;103610;280;38542;-69
2023/04/09 05:22:28;;;;;;;13.40;10.90;;;;;;;7.87;87.98;101271.69;103676;280;39207;-75
2023/04/09 05:25:02;;;;;;;12.00;10.50;;;;;;;7.98;88.23;101272.09;103657;280;38852;-72
2023/04/09 05:27:36;;;;;;;13.90;10.00;;;;;;;8.08;88.39;101272.48;103623;280;38521;-72
2023/04/09 05:30:13;;;;;;;13.70;9.60;;;;;;;8.21;88.62;101273.52;103654;280;38434;-70
2023/04/09 05:32:48;;;;;;;10.20;9.10;;;;;;;8.34;88.77;101270.55;103658;280;38923;-75
2023/04/09 05:35:22;;;;;;;11.60;9.50;;;;;;;8.48;88.78;101272.11;103670;280;39448;-72
2023/04/09 05:37:56;;;;;;;10.40;9.30;;;;;;;8.65;88.92;101272.02;103655;280;38930;-74
2023/04/09 05:40:31;;;;;;;10.20;9.10;;;;;;;8.82;88.79;101267.93;103558;280;39992;-72
2023/04/09 05:43:05;;;;;;;11.30;9.50;;;;;;;8.99;88.84;101267.29;103654;280;38666;-74
2023/04/09 05:45:39;;;;;;;10.50;8.70;;;;;;;9.18;88.53;101270.45;103684;280;39404;-75
2023/04/09 05:48:13;;;;;;;8.70;7.80;;;;;;;9.32;88.04;101270.19;103672;280;39123;-73
2023/04/09 05:50:52;;;;;;;9.40;8.40;;;;;;;9.41;87.52;101273.67;103681;280;38413;-73
2023/04/09 05:53:26;;;;;;;8.90;8.00;;;;;;;9.50;87.28;101275.59;103684;280;38664;-72
2023/04/09 05:56:00;;;;;;;9.10;8.20;;;;;;;9.60;86.86;101274.36;103712;280;38328;-72
2023/04/09 05:58:35;;;;;;;9.50;8.60;;;;;;;9.65;86.42;101271.99;103684;280;38809;-72
2023/04/09 06:01:08;;;;;;;10.70;8.70;;;;;;;9.68;85.93;101270.04;103577;268;189132;-72
2023/04/09 06:03:42;;;;;;;9.10;7.90;;;;;;;9.67;85.85;101272.65;103709;280;39673;-72
2023/04/09 06:06:16;;;;;;;8.50;7.60;;;;;;;9.77;86.18;101276.63;103694;280;38426;-70
2023/04/09 06:08:50;;;;;;;8.70;7.80;;;;;;;9.92;86.31;101277.38;103702;280;38622;-70
2023/04/09 06:11:24;;;;;;;9.70;8.70;;;;;;;10.03;86.01;101275.92;103697;280;39620;-70
2023/04/09 06:13:59;;;;;;;9.30;8.30;;;;;;;10.16;85.73;101274.61;103664;280;39795;-70
2023/04/09 06:16:33;;;;;;;11.20;9.50;;;;;;;10.29;85.69;101273.30;103698;280;40683;-72
2023/04/09 06:19:07;;;;;;;10.70;9.70;;;;;;;10.46;85.77;101280.42;103647;280;38368;-70
2023/04/09 06:21:41;;;;;;;10.00;9.00;;;;;;;10.71;86.44;101278.27;103669;268;40250;-72
2023/04/09 06:24:15;;;;;;;10.70;9.50;;;;;;;10.97;86.13;101277.27;103643;280;39690;-72
2023/04/09 06:26:50;;;;;;;10.80;9.70;;;;;;;11.18;85.27;101276.03;103675;280;39656;-70
2023/04/09 06:29:24;;;;;;;10.80;9.70;;;;;;;11.35;84.21;101282.39;103649;268;38258;-71
2023/04/09 06:31:58;;;;;;;10.30;9.20;;;;;;;11.41;83.39;101281.02;103681;280;38516;-73
2023/04/09 06:34:32;;;;;;;11.80;9.90;;;;;;;11.47;82.59;101282.42;103666;280;39441;-73
2023/04/09 06:37:07;;;;;;;11.30;10.10;;;;;;;11.53;82.16;101278.94;103688;280;38703;-70
2023/04/09 06:39:41;;;;;;;12.30;11.00;;;;;;;11.61;81.77;101283.79;103645;280;38289;-72
2023/04/09 06:42:15;;;;;;;12.50;10.50;;;;;;;11.69;81.29;101286.89;103689;280;39382;-71
2023/04/09 06:44:49;;;;;;;11.70;10.50;;;;;;;11.74;80.86;101287.61;103652;280;38776;-70
2023/04/09 06:47:24;;;;;;;11.90;10.40;;;;;;;11.80;80.84;101293.57;103702;280;39603;-72
2023/04/09 06:49:58;;;;;;;11.50;10.40;;;;;;;11.95;80.66;101294.22;103637;280;38360;-72
2023/04/09 06:52:32;;;;;;;11.70;10.50;;;;;;;12.10;80.30;101296.91;103689;280;38480;-71
2023/04/09 06:55:07;;;;;;;13.80;10.80;;;;;;;12.27;79.95;101299.56;103665;280;39696;-72
2023/04/09 06:57:41;;;;;;;12.60;10.90;;;;;;;12.39;79.43;101300.59;103687;279;38275;-73
2023/04/09 07:00:18;;;;;;;12.80;11.30;;;;;;;12.52;78.76;101300.72;103666;280;39963;-74
2023/04/09 07:02:52;;;;;;;12.90;11.10;;;;;;;12.69;78.52;101304.59;103692;280;38494;-72
2023/04/09 07:05:26;;;;;;;12.80;11.40;;;;;;;12.77;77.37;101308.16;103682;280;39409;-72
2023/04/09 07:08:00;;;;;;;12.80;11.50;;;;;;;12.85;76.27;101309.81;103672;280;38495;-75
2023/04/09 07:10:34;;;;;;;13.60;12.20;;;;;;;12.89;76.31;101312.48;103678;280;38652;-71
2023/04/09 07:13:08;;;;;;;12.70;11.30;;;;;;;12.88;74.31;101317.25;103635;280;38392;-72
2023/04/09 07:15:42;;;;;;;12.90;11.60;;;;;;;12.81;74.30;101312.74;103672;280;39939;-72
2023/04/09 07:18:16;;;;;;;14.00;12.50;;;;;;;12.86;74.35;101311.90;103645;269;39648;-71
2023/04/09 07:20:51;;;;;;;13.20;11.80;;;;;;;12.94;74.56;101310.77;103659;272;38269;-72
2023/04/09 07:23:26;;;;;;;14.10;12.30;;;;;;;13.09;74.83;101303.60;103508;280;38458;-70
2023/04/09 07:26:01;;;;;;;13.10;11.70;;;;;;;13.17;74.23;101301.92;103669;280;38537;-73
2023/04/09 07:28:35;;;;;;;12.90;11.60;;;;;;;13.25;74.10;101303.09;103663;280;38476;-73
2023/04/09 07:31:10;;;;;;;13.10;11.70;;;;;;;13.38;74.47;101304.92;103677;280;39173;-73
2023/04/09 07:33:44;;;;;;;15.00;13.20;;;;;;;13.43;73.84;101307.20;103666;280;38244;-74
2023/04/09 07:36:19;;;;;;;13.10;11.60;;;;;;;13.52;73.49;101308.65;103552;280;39455;-75
2023/04/09 07:38:52;;;;;;;14.20;12.40;;;;;;;13.71;73.78;101300.95;103556;280;175084;-75
2023/04/09 07:41:26;;;;;;;14.70;12.60;;;;;;;13.93;73.32;101303.47;103666;280;39425;-71
2023/04/09 07:44:02;;;;;;;13.10;11.70;;;;;;;14.06;72.90;101307.71;103646;280;38607;-72
2023/04/09 07:46:36;;;;;;;14.90;12.10;;;;;;;14.07;70.76;101308.05;103496;282;38762;-72
2023/04/09 07:49:10;;;;;;;13.30;11.80;;;;;;;14.04;71.27;101306.23;103650;279;38399;-71
2023/04/09 07:51:44;;;;;;;13.30;11.90;;;;;;;14.15;71.38;101308.79;103651;280;38471;-71
2023/04/09 07:54:19;;;;;;;12.90;11.40;;;;;;;14.29;71.14;101305.80;103640;280;40053;-71
2023/04/09 07:56:53;;;;;;;12.80;11.50;;;;;;;14.41;69.90;101309.18;103680;280;39945;-72
2023/04/09 07:59:28;;;;;;;15.30;12.40;;;;;;;14.48;69.89;101302.64;103703;280;38532;-72
2023/04/09 08:02:02;;;;;;;13.00;11.60;;;;;;;14.70;69.92;101307.20;103720;280;38593;-73
2023/04/09 08:04:37;;;;;;;13.20;11.90;;;;;;;14.85;68.28;101304.99;103489;282;39685;-75
2023/04/09 08:07:11;;;;;;;13.40;11.70;;;;;;;14.99;68.30;101299.70;103684;280;37248;-71
2023/04/09 08:09:45;;;;;;;13.20;11.90;;;;;;;15.09;67.32;101302.45;103671;280;39453;-70
2023/04/09 08:12:19;;;;;;;12.20;11.00;;;;;;;15.18;67.09;101303.83;103669;280;38435;-74
2023/04/09 08:14:53;;;;;;;12.50;11.20;;;;;;;15.28;66.07;101308.16;103662;280;39436;-74
2023/04/09 08:17:27;;;;;;;12.10;10.80;;;;;;;15.22;64.74;101308.02;103673;280;39435;-75
2023/04/09 08:20:01;;;;;;;13.10;10.70;;;;;;;15.29;64.97;101306.88;103640;280;38545;-75
2023/04/09 08:22:35;;;;;;;12.40;10.70;;;;;;;15.38;64.14;101308.95;103655;280;38527;-72
2023/04/09 08:25:11;;;;;;;11.80;10.60;;;;;;;15.45;63.10;101307.73;103612;280;38532;-73
2023/04/09 08:27:45;;;;;;;12.20;10.90;;;;;;;15.57;63.58;101304.25;103666;280;39678;-73
2023/04/09 08:30:19;;;;;;;11.50;10.40;;;;;;;15.79;63.80;101302.95;103687;280;38766;-73
2023/04/09 08:32:54;;;;;;;11.30;10.20;;;;;;;15.96;63.66;101303.43;103700;280;38594;-71
2023/04/09 08:35:30;;;;;;;10.90;9.80;;;;;;;16.15;62.86;101305.73;103727;280;38359;-73
2023/04/09 08:38:04;;;;;;;10.90;9.80;;;;;;;16.29;61.04;101306.47;103709;280;39430;-72
2023/04/09 08:40:39;;;;;;;10.60;9.60;;;;;;;16.27;60.55;101307.08;103663;280;39394;-72
2023/04/09 08:43:15;;;;;;;10.70;9.60;;;;;;;16.17;60.45;101306.67;103683;280;39708;-71
2023/04/09 08:45:49;;;;;;;10.60;9.60;;;;;;;16.20;60.11;101305.83;103696;269;38795;-71
2023/04/09 08:48:23;;;;;;;11.30;10.30;;;;;;;16.22;59.54;101309.78;103669;280;39117;-73
2023/04/09 08:50:57;;;;;;;10.10;9.00;;;;;;;16.23;59.61;101304.63;103583;280;175018;-74
2023/04/09 08:53:31;;;;;;;11.20;10.10;;;;;;;16.16;59.53;101309.04;103654;280;39450;-73
2023/04/09 08:56:06;;;;;;;10.30;9.40;;;;;;;16.08;58.70;101308.34;103500;280;39335;-72
2023/04/09 08:58:42;;;;;;;10.60;9.60;;;;;;;15.97;58.31;101307.59;103635;280;38350;-72
2023/04/09 09:01:27;;;;;;;10.70;9.50;;;;;;;15.87;58.21;101301.53;103723;280;39560;-73
2023/04/09 09:04:03;;;;;;;11.50;10.40;;;;;;;15.75;58.30;101300.65;103659;280;38355;-71
2023/04/09 09:06:38;;;;;;;11.00;9.90;;;;;;;15.65;58.76;101305.84;103685;280;38537;-73
2023/04/09 09:09:13;;;;;;;11.60;10.40;;;;;;;15.57;59.52;101306.20;103656;279;40175;-71
2023/04/09 09:11:49;;;;;;;11.00;9.90;;;;;;;15.50;59.42;101308.95;103682;280;38835;-75
2023/04/09 09:14:23;;;;;;;10.90;9.80;;;;;;;15.35;58.48;101313.46;103645;280;39045;-75
2023/04/09 09:17:10;;;;;;;10.80;9.70;;;;;;;15.13;58.19;101314.74;103687;280;38880;-73
2023/04/09 09:19:44;;;;;;;11.70;10.40;;;;;;;15.02;59.05;101318.91;103685;280;38931;-72
2023/04/09 09:22:19;;;;;;;11.80;10.70;;;;;;;14.99;59.26;101323.23;103690;280;38288;-75
2023/04/09 09:24:54;;;;;;;11.70;10.50;;;;;;;14.99;59.38;101326.60;103657;279;39449;-73
2023/04/09 09:27:39;;;;;;;11.20;10.10;;;;;;;14.95;58.83;101330.27;103672;280;38513;-72
2023/04/09 09:30:22;;;;;;;12.50;10.90;;;;;;;14.88;58.39;101333.35;103657;280;40267;-73
2023/04/09 09:33:07;;;;;;;14.30;12.30;;;;;;;14.78;57.94;101330.06;103661;280;38395;-72
2023/04/09 09:35:54;;;;;;;12.80;11.20;;;;;;;14.74;58.56;101334.13;103096;280;677639;-73
2023/04/09 09:38:27;;;;;;;12.90;10.80;;;;;;;14.80;58.73;101332.28;103658;280;39183;-73
2023/04/09 09:41:02;;;;;;;12.40;11.20;;;;;;;14.88;59.12;101331.04;103703;280;38774;-71
2023/04/09 09:43:43;;;;;;;12.30;10.70;;;;;;;14.97;58.58;101328.59;103628;280;38247;-71
2023/04/09 09:46:17;;;;;;;12.90;11.10;;;;;;;14.99;58.89;101325.19;103543;269;39388;-73
2023/04/09 09:48:51;;;;;;;13.80;11.50;;;;;;;15.05;59.04;101327.05;103481;281;40007;-73
2023/04/09 09:51:30;;;;;;;12.60;11.30;;;;;;;15.12;58.23;101324.80;103515;281;39632;-75
2023/04/09 09:54:04;;;;;;;13.30;11.90;;;;;;;15.14;57.85;101321.71;103502;281;38760;-75
2023/04/09 09:56:42;;;;;;;12.90;11.60;;;;;;;15.29;59.46;101314.77;103538;281;38260;-75
2023/04/09 09:59:20;;;;;;;13.20;11.00;;;;;;;15.65;59.57;101323.27;103474;281;38468;-72
2023/04/09 10:01:57;;;;;;;12.50;10.90;;;;;;;16.06;58.43;101322.15;103523;281;38812;-73
2023/04/09 10:04:34;;;;;;;12.00;10.80;;;;;;;16.36;57.54;101320.40;103539;281;39871;-71
2023/04/09 10:07:09;;;;;;;12.40;11.20;;;;;;;16.56;55.59;101316.29;103505;281;38221;-73
2023/04/09 10:09:45;;;;;;;12.50;11.20;;;;;;;16.58;54.96;101315.11;103492;281;38507;-75
2023/04/09 10:12:19;;;;;;;12.30;11.10;;;;;;;16.58;55.07;101313.54;103517;281;38233;-73
2023/04/09 10:14:54;;;;;;;12.10;10.80;;;;;;;16.55;54.74;101314.23;103464;281;39701;-71
2023/04/09 10:17:28;;;;;;;12.60;11.30;;;;;;;16.53;54.06;101310.63;103522;281;38470;-75
2023/04/09 10:20:08;;;;;;;12.20;10.60;;;;;;;16.40;53.81;101311.95;103512;281;38236;-72
2023/04/09 10:22:43;;;;;;;13.10;11.20;;;;;;;16.36;54.16;101313.16;103472;281;38516;-73
2023/04/09 10:25:19;;;;;;;12.00;10.80;;;;;;;16.34;54.35;101313.98;103474;281;38612;-71
2023/04/09 10:28:07;;;;;;;12.90;11.60;;;;;;;16.25;53.58;101311.56;103514;281;39894;-74
2023/04/09 10:30:42;;;;;;;13.10;11.80;;;;;;;16.12;54.29;101312.02;103389;281;188213;-73
2023/04/09 10:33:18;;;;;;;13.30;11.40;;;;;;;16.07;54.53;101312.05;103477;281;38248;-75
2023/04/09 10:35:52;;;;;;;12.50;10.80;;;;;;;15.97;54.72;101311.82;103525;281;39780;-75
2023/04/09 10:38:45;;;;;;;13.20;11.00;;;;;;;15.84;55.37;101307.30;103478;281;38394;-75
2023/04/09 10:41:28;;;;;;;12.60;11.30;;;;;;;15.69;55.68;101310.76;103532;281;37887;-74
2023/04/09 10:44:02;;;;;;;13.40;11.70;;;;;;;15.64;56.11;101309.40;103519;280;39917;-73
2023/04/09 10:46:39;;;;;;;13.50;11.60;;;;;;;15.60;56.77;101308.67;103679;280;40293;-70
2023/04/09 10:49:19;;;;;;;14.80;11.40;;;;;;;15.61;56.92;101309.68;103680;280;39184;-72
2023/04/09 10:52:02;;;;;;;13.20;11.20;;;;;;;15.68;57.34;101301.33;103698;280;38267;-74
2023/04/09 10:54:47;;;;;;;13.50;11.50;;;;;;;15.84;57.81;101299.21;103673;280;38532;-72
2023/04/09 10:57:23;;;;;;;13.40;11.70;;;;;;;15.93;57.07;101302.34;103669;280;38669;-74
2023/04/09 10:59:57;;;;;;;13.00;11.70;;;;;;;15.93;56.57;101300.23;103661;280;39687;-75
2023/04/09 11:03:14;;;;;;;12.80;11.30;;;;;;;16.00;56.96;101304.30;103645;280;38752;-72
2023/04/09 11:05:49;;;;;;;12.00;10.70;;;;;;;16.06;56.13;101301.04;103571;280;174972;-74
2023/04/09 11:08:27;;;;;;;12.90;11.40;;;;;;;16.10;56.29;101303.12;103691;280;38959;-74
2023/04/09 11:11:03;;;;;;;12.20;11.00;;;;;;;16.18;56.23;101302.91;103691;280;38576;-73
2023/04/09 11:13:37;;;;;;;13.10;11.20;;;;;;;16.24;55.78;101304.05;103665;280;38513;-75
2023/04/09 11:16:11;;;;;;;12.20;11.00;;;;;;;16.25;56.12;101296.45;103706;278;39962;-73
2023/04/09 11:18:45;;;;;;;13.00;11.70;;;;;;;16.31;56.01;101295.80;103633;280;39555;-74
2023/04/09 11:21:20;;;;;;;12.90;10.90;;;;;;;16.35;55.90;101293.84;103685;280;38276;-72
2023/04/09 11:23:56;;;;;;;12.40;10.70;;;;;;;16.37;55.31;101295.16;103660;280;38461;-73
2023/04/09 11:26:38;;;;;;;12.10;10.90;;;;;;;16.35;54.88;101295.83;103527;280;39452;-71
2023/04/09 11:29:13;;;;;;;11.40;9.80;;;;;;;16.31;54.55;101297.05;103636;280;38380;-72
2023/04/09 11:31:48;;;;;;;11.80;10.20;;;;;;;16.30;54.68;101296.04;103714;280;38940;-71
2023/04/09 11:34:22;;;;;;;11.40;10.20;;;;;;;16.34;54.42;101297.05;103698;280;38489;-70
2023/04/09 11:36:57;;;;;;;10.70;9.60;;;;;;;16.34;53.44;101297.41;103675;280;39184;-72
2023/04/09 11:39:32;;;;;;;10.70;9.00;;;;;;;16.32;54.16;101289.40;103667;280;39576;-72
2023/04/09 11:42:05;;;;;;;10.10;9.20;;;;;;;16.49;54.35;101290.35;103726;280;38320;-72
2023/04/09 11:44:40;;;;;;;11.30;8.80;;;;;;;16.73;54.35;101289.91;103658;280;39940;-71
2023/04/09 11:47:15;;;;;;;10.20;9.10;;;;;;;17.00;53.91;101287.56;103045;280;899284;-75
2023/04/09 11:49:49;;;;;;;9.90;8.80;;;;;;;17.20;53.59;101282.29;103545;280;38500;-75
2023/04/09 11:52:24;;;;;;;10.20;9.00;;;;;;;17.35;53.66;101282.08;103686;280;38318;-75
2023/04/09 11:55:03;;;;;;;9.90;8.90;;;;;;;17.42;53.12;101282.58;103639;280;38497;-74